メインページ
METAR-TAF:

METAR-TAF

空港 :

ポルト・アレグレ, リオグランデ・ド・スル州, ブラジル

サルガド・フィーリョ国際空港

緯度: 30-00S, 経度: 051-11W, 海抜: 3m

現時点の気象観測

当レポートは19分前の02:00(UTC)に作成
北東の風 4kt、北/北西からの間で変化する
気温 16°C
湿度 77%
気圧 1023 hPa
視程10km以上
1,500メートル以下は雲なし、積乱雲なし

METAR: SBPA 010200Z 04004KT 340V080 CAVOK 16/12 Q1023

時間: 23:19 (02:19 UTC)

予報

当レポートは4時間49分前の21:30(UTC)に作成
予報は01日の 00時(UTC)から 01日の 24時(UTC)まで有効
西の風 2kt
視程10km以上
1,500メートル以下は雲なし、積乱雲なし
01日の 14時(UTC)から 01日の 16時(UTC)まで徐々に
東/南東の風 5kt

TAF: SBPA 302130Z 0100/0124 28002KT CAVOK TN11/0109Z TX25/0118Z BECMG 0114/0116 12005KT RMK PDW

4,000以上の空港の気象観測と天気予報(METAR報とTAF報)

利用可能な観測所は地図上に黄色い丸と赤い丸で示す。

丸の上にカーソルを重ねると観測所名を参照できる。

次にクリックすると気象観測と天気予報を参照できる。

マップの切り替え:黒色「×」印の緑ボタンをクリックして拡大、「-」印の緑ボタンをクリックして縮小、緑色の三角印をクリックして隣りの地図に切り替え


METAR-TAF: